sensor_id;sensor_type;location;lat;lon;timestamp;P1;durP1;ratioP1;P2;durP2;ratioP2
35693;SDS011;21812;55.536;37.664;2023-11-19T00:00:59;22.20;;;11.20;;
35693;SDS011;21812;55.536;37.664;2023-11-19T00:03:25;26.20;;;9.97;;
35693;SDS011;21812;55.536;37.664;2023-11-19T00:05:51;29.27;;;10.73;;
35693;SDS011;21812;55.536;37.664;2023-11-19T00:08:17;27.63;;;12.70;;
35693;SDS011;21812;55.536;37.664;2023-11-19T00:10:44;21.80;;;9.50;;
35693;SDS011;21812;55.536;37.664;2023-11-19T00:13:11;28.20;;;9.90;;
35693;SDS011;21812;55.536;37.664;2023-11-19T00:15:37;32.33;;;12.17;;
35693;SDS011;21812;55.536;37.664;2023-11-19T00:18:04;23.17;;;10.43;;
35693;SDS011;21812;55.536;37.664;2023-11-19T00:20:30;22.10;;;11.20;;
35693;SDS011;21812;55.536;37.664;2023-11-19T00:22:56;23.50;;;11.17;;
35693;SDS011;21812;55.536;37.664;2023-11-19T00:25:23;23.57;;;10.87;;
35693;SDS011;21812;55.536;37.664;2023-11-19T00:27:50;24.33;;;11.00;;
35693;SDS011;21812;55.536;37.664;2023-11-19T00:30:17;19.07;;;8.53;;
35693;SDS011;21812;55.536;37.664;2023-11-19T00:32:43;27.90;;;12.80;;
35693;SDS011;21812;55.536;37.664;2023-11-19T00:35:09;24.20;;;10.67;;
35693;SDS011;21812;55.536;37.664;2023-11-19T00:37:40;21.90;;;10.80;;
35693;SDS011;21812;55.536;37.664;2023-11-19T00:40:08;25.40;;;10.87;;
35693;SDS011;21812;55.536;37.664;2023-11-19T00:42:36;33.77;;;10.77;;
35693;SDS011;21812;55.536;37.664;2023-11-19T00:45:02;23.70;;;12.10;;
35693;SDS011;21812;55.536;37.664;2023-11-19T00:47:30;23.27;;;10.40;;
35693;SDS011;21812;55.536;37.664;2023-11-19T00:49:56;24.87;;;11.47;;
35693;SDS011;21812;55.536;37.664;2023-11-19T00:52:22;31.50;;;10.63;;
35693;SDS011;21812;55.536;37.664;2023-11-19T00:54:47;19.43;;;9.63;;
35693;SDS011;21812;55.536;37.664;2023-11-19T00:57:13;26.07;;;11.47;;
35693;SDS011;21812;55.536;37.664;2023-11-19T00:59:41;24.10;;;12.23;;
35693;SDS011;21812;55.536;37.664;2023-11-19T01:02:07;24.97;;;11.87;;
35693;SDS011;21812;55.536;37.664;2023-11-19T01:04:34;22.10;;;11.50;;
35693;SDS011;21812;55.536;37.664;2023-11-19T01:07:01;27.70;;;10.97;;
35693;SDS011;21812;55.536;37.664;2023-11-19T01:09:29;24.00;;;11.33;;
35693;SDS011;21812;55.536;37.664;2023-11-19T01:11:57;30.53;;;11.50;;
35693;SDS011;21812;55.536;37.664;2023-11-19T01:14:26;19.03;;;10.77;;
35693;SDS011;21812;55.536;37.664;2023-11-19T01:16:52;22.40;;;9.70;;
35693;SDS011;21812;55.536;37.664;2023-11-19T01:19:20;22.53;;;11.00;;
35693;SDS011;21812;55.536;37.664;2023-11-19T01:21:47;29.60;;;11.30;;
35693;SDS011;21812;55.536;37.664;2023-11-19T01:24:14;21.73;;;11.63;;
35693;SDS011;21812;55.536;37.664;2023-11-19T01:26:39;21.97;;;11.13;;
35693;SDS011;21812;55.536;37.664;2023-11-19T01:29:11;23.33;;;10.60;;
35693;SDS011;21812;55.536;37.664;2023-11-19T01:31:40;30.97;;;11.93;;
35693;SDS011;21812;55.536;37.664;2023-11-19T01:34:07;26.50;;;12.80;;
35693;SDS011;21812;55.536;37.664;2023-11-19T01:36:33;32.37;;;11.73;;
35693;SDS011;21812;55.536;37.664;2023-11-19T01:38:58;27.23;;;9.83;;
35693;SDS011;21812;55.536;37.664;2023-11-19T01:41:24;30.10;;;10.83;;
35693;SDS011;21812;55.536;37.664;2023-11-19T01:43:50;24.33;;;10.63;;
35693;SDS011;21812;55.536;37.664;2023-11-19T01:46:16;19.17;;;9.50;;
35693;SDS011;21812;55.536;37.664;2023-11-19T01:48:44;30.03;;;10.00;;
35693;SDS011;21812;55.536;37.664;2023-11-19T01:51:11;23.93;;;10.07;;
35693;SDS011;21812;55.536;37.664;2023-11-19T01:53:38;19.63;;;9.13;;
35693;SDS011;21812;55.536;37.664;2023-11-19T01:56:08;22.03;;;10.33;;
35693;SDS011;21812;55.536;37.664;2023-11-19T01:58:37;18.70;;;9.80;;
35693;SDS011;21812;55.536;37.664;2023-11-19T02:01:05;17.43;;;9.17;;
35693;SDS011;21812;55.536;37.664;2023-11-19T02:03:33;23.60;;;11.07;;
35693;SDS011;21812;55.536;37.664;2023-11-19T02:06:01;19.33;;;9.03;;
35693;SDS011;21812;55.536;37.664;2023-11-19T02:08:29;24.47;;;10.17;;
35693;SDS011;21812;55.536;37.664;2023-11-19T02:10:55;18.57;;;10.63;;
35693;SDS011;21812;55.536;37.664;2023-11-19T02:13:26;20.43;;;9.57;;
35693;SDS011;21812;55.536;37.664;2023-11-19T02:15:55;23.37;;;10.07;;
35693;SDS011;21812;55.536;37.664;2023-11-19T02:18:26;25.43;;;9.43;;
35693;SDS011;21812;55.536;37.664;2023-11-19T02:20:57;22.60;;;10.77;;
35693;SDS011;21812;55.536;37.664;2023-11-19T02:23:26;24.60;;;10.47;;
35693;SDS011;21812;55.536;37.664;2023-11-19T02:26:02;22.27;;;9.77;;
35693;SDS011;21812;55.536;37.664;2023-11-19T02:28:28;25.50;;;10.50;;
35693;SDS011;21812;55.536;37.664;2023-11-19T02:30:54;24.33;;;10.40;;
35693;SDS011;21812;55.536;37.664;2023-11-19T02:33:20;21.73;;;11.60;;
35693;SDS011;21812;55.536;37.664;2023-11-19T02:35:46;25.50;;;11.33;;
35693;SDS011;21812;55.536;37.664;2023-11-19T02:38:11;21.63;;;10.03;;
35693;SDS011;21812;55.536;37.664;2023-11-19T02:40:39;23.67;;;10.20;;
35693;SDS011;21812;55.536;37.664;2023-11-19T02:43:05;19.03;;;9.97;;
35693;SDS011;21812;55.536;37.664;2023-11-19T02:45:30;24.77;;;10.57;;
35693;SDS011;21812;55.536;37.664;2023-11-19T02:47:56;23.13;;;10.93;;
35693;SDS011;21812;55.536;37.664;2023-11-19T02:50:22;22.43;;;10.13;;
35693;SDS011;21812;55.536;37.664;2023-11-19T02:52:52;19.57;;;10.87;;
35693;SDS011;21812;55.536;37.664;2023-11-19T02:55:19;23.80;;;10.23;;
35693;SDS011;21812;55.536;37.664;2023-11-19T02:57:45;23.10;;;10.53;;
35693;SDS011;21812;55.536;37.664;2023-11-19T03:00:18;21.00;;;10.10;;
35693;SDS011;21812;55.536;37.664;2023-11-19T03:02:49;26.20;;;10.13;;
35693;SDS011;21812;55.536;37.664;2023-11-19T03:05:24;24.13;;;10.13;;
35693;SDS011;21812;55.536;37.664;2023-11-19T03:07:52;21.40;;;10.50;;
35693;SDS011;21812;55.536;37.664;2023-11-19T03:10:18;24.30;;;11.03;;
35693;SDS011;21812;55.536;37.664;2023-11-19T03:12:44;23.87;;;9.53;;
35693;SDS011;21812;55.536;37.664;2023-11-19T03:15:13;18.53;;;9.30;;
35693;SDS011;21812;55.536;37.664;2023-11-19T03:17:40;20.17;;;9.90;;
35693;SDS011;21812;55.536;37.664;2023-11-19T03:20:10;16.07;;;9.97;;
35693;SDS011;21812;55.536;37.664;2023-11-19T03:22:41;24.13;;;10.00;;
35693;SDS011;21812;55.536;37.664;2023-11-19T03:25:08;22.20;;;9.40;;
35693;SDS011;21812;55.536;37.664;2023-11-19T03:27:36;21.60;;;9.67;;
35693;SDS011;21812;55.536;37.664;2023-11-19T03:30:05;23.30;;;10.73;;
35693;SDS011;21812;55.536;37.664;2023-11-19T03:32:32;16.97;;;9.00;;
35693;SDS011;21812;55.536;37.664;2023-11-19T03:35:01;24.67;;;10.17;;
35693;SDS011;21812;55.536;37.664;2023-11-19T03:37:30;20.30;;;10.30;;
35693;SDS011;21812;55.536;37.664;2023-11-19T03:39:57;30.50;;;11.00;;
35693;SDS011;21812;55.536;37.664;2023-11-19T03:42:26;24.20;;;11.37;;
35693;SDS011;21812;55.536;37.664;2023-11-19T03:44:53;25.13;;;11.27;;
35693;SDS011;21812;55.536;37.664;2023-11-19T03:47:19;23.47;;;11.43;;
35693;SDS011;21812;55.536;37.664;2023-11-19T03:49:49;30.87;;;12.83;;
35693;SDS011;21812;55.536;37.664;2023-11-19T03:52:16;26.60;;;12.13;;
35693;SDS011;21812;55.536;37.664;2023-11-19T03:54:42;22.07;;;10.90;;
35693;SDS011;21812;55.536;37.664;2023-11-19T03:57:09;26.07;;;12.67;;
35693;SDS011;21812;55.536;37.664;2023-11-19T03:59:37;25.10;;;13.97;;
35693;SDS011;21812;55.536;37.664;2023-11-19T04:02:03;22.17;;;11.80;;
35693;SDS011;21812;55.536;37.664;2023-11-19T04:04:29;30.40;;;13.17;;
35693;SDS011;21812;55.536;37.664;2023-11-19T04:06:55;24.47;;;11.57;;
35693;SDS011;21812;55.536;37.664;2023-11-19T04:09:21;28.73;;;12.87;;
35693;SDS011;21812;55.536;37.664;2023-11-19T04:11:47;36.40;;;13.37;;
35693;SDS011;21812;55.536;37.664;2023-11-19T04:14:13;24.47;;;13.53;;
35693;SDS011;21812;55.536;37.664;2023-11-19T04:16:40;29.03;;;14.67;;
35693;SDS011;21812;55.536;37.664;2023-11-19T04:19:06;33.03;;;13.53;;
35693;SDS011;21812;55.536;37.664;2023-11-19T04:21:32;32.33;;;16.73;;
35693;SDS011;21812;55.536;37.664;2023-11-19T04:23:58;31.07;;;14.43;;
35693;SDS011;21812;55.536;37.664;2023-11-19T04:26:24;32.10;;;14.50;;
35693;SDS011;21812;55.536;37.664;2023-11-19T04:28:50;29.43;;;14.03;;
35693;SDS011;21812;55.536;37.664;2023-11-19T04:31:20;27.53;;;11.13;;
35693;SDS011;21812;55.536;37.664;2023-11-19T04:33:45;34.73;;;12.83;;
35693;SDS011;21812;55.536;37.664;2023-11-19T04:36:12;33.50;;;13.50;;
35693;SDS011;21812;55.536;37.664;2023-11-19T04:38:40;26.73;;;12.53;;
35693;SDS011;21812;55.536;37.664;2023-11-19T04:41:05;32.90;;;13.73;;
35693;SDS011;21812;55.536;37.664;2023-11-19T04:43:32;26.80;;;13.00;;
35693;SDS011;21812;55.536;37.664;2023-11-19T04:45:57;30.77;;;12.50;;
35693;SDS011;21812;55.536;37.664;2023-11-19T04:48:23;27.17;;;11.53;;
35693;SDS011;21812;55.536;37.664;2023-11-19T04:50:49;31.97;;;11.43;;
35693;SDS011;21812;55.536;37.664;2023-11-19T04:53:18;25.50;;;12.00;;
35693;SDS011;21812;55.536;37.664;2023-11-19T04:55:44;30.23;;;12.67;;
35693;SDS011;21812;55.536;37.664;2023-11-19T04:58:10;32.40;;;13.37;;
35693;SDS011;21812;55.536;37.664;2023-11-19T05:00:36;25.13;;;12.17;;
35693;SDS011;21812;55.536;37.664;2023-11-19T05:03:01;27.30;;;12.80;;
35693;SDS011;21812;55.536;37.664;2023-11-19T05:05:28;25.03;;;11.77;;
35693;SDS011;21812;55.536;37.664;2023-11-19T05:07:53;43.13;;;13.73;;
35693;SDS011;21812;55.536;37.664;2023-11-19T05:10:20;31.90;;;12.77;;
35693;SDS011;21812;55.536;37.664;2023-11-19T05:12:45;26.13;;;12.50;;
35693;SDS011;21812;55.536;37.664;2023-11-19T05:15:11;36.70;;;12.10;;
35693;SDS011;21812;55.536;37.664;2023-11-19T05:17:37;24.77;;;11.73;;
35693;SDS011;21812;55.536;37.664;2023-11-19T05:20:04;33.10;;;12.30;;
35693;SDS011;21812;55.536;37.664;2023-11-19T05:22:31;24.30;;;11.93;;
35693;SDS011;21812;55.536;37.664;2023-11-19T05:24:57;23.80;;;11.20;;
35693;SDS011;21812;55.536;37.664;2023-11-19T05:27:23;31.67;;;12.30;;
35693;SDS011;21812;55.536;37.664;2023-11-19T05:29:49;27.07;;;11.97;;
35693;SDS011;21812;55.536;37.664;2023-11-19T05:32:14;29.20;;;11.67;;
35693;SDS011;21812;55.536;37.664;2023-11-19T05:34:40;29.53;;;13.93;;
35693;SDS011;21812;55.536;37.664;2023-11-19T05:37:06;27.13;;;11.27;;
35693;SDS011;21812;55.536;37.664;2023-11-19T05:39:33;22.00;;;10.97;;
35693;SDS011;21812;55.536;37.664;2023-11-19T05:41:58;23.47;;;11.53;;
35693;SDS011;21812;55.536;37.664;2023-11-19T05:44:24;29.93;;;11.47;;
35693;SDS011;21812;55.536;37.664;2023-11-19T05:46:50;25.20;;;12.57;;
35693;SDS011;21812;55.536;37.664;2023-11-19T05:49:15;29.13;;;11.80;;
35693;SDS011;21812;55.536;37.664;2023-11-19T05:51:41;32.40;;;13.53;;
35693;SDS011;21812;55.536;37.664;2023-11-19T05:54:09;30.07;;;13.00;;
35693;SDS011;21812;55.536;37.664;2023-11-19T05:56:36;32.27;;;12.53;;
35693;SDS011;21812;55.536;37.664;2023-11-19T05:59:02;23.67;;;12.63;;
35693;SDS011;21812;55.536;37.664;2023-11-19T06:01:39;34.27;;;14.20;;
35693;SDS011;21812;55.536;37.664;2023-11-19T06:04:07;29.87;;;13.90;;
35693;SDS011;21812;55.536;37.664;2023-11-19T06:06:33;31.73;;;14.83;;
35693;SDS011;21812;55.536;37.664;2023-11-19T06:08:59;25.20;;;12.73;;
35693;SDS011;21812;55.536;37.664;2023-11-19T06:11:25;29.90;;;12.73;;
35693;SDS011;21812;55.536;37.664;2023-11-19T06:13:52;30.43;;;14.37;;
35693;SDS011;21812;55.536;37.664;2023-11-19T06:16:18;31.33;;;13.37;;
35693;SDS011;21812;55.536;37.664;2023-11-19T06:18:44;34.47;;;15.00;;
35693;SDS011;21812;55.536;37.664;2023-11-19T06:21:10;24.27;;;12.13;;
35693;SDS011;21812;55.536;37.664;2023-11-19T06:23:36;35.60;;;14.33;;
35693;SDS011;21812;55.536;37.664;2023-11-19T06:26:02;34.03;;;12.70;;
35693;SDS011;21812;55.536;37.664;2023-11-19T06:28:28;23.17;;;13.20;;
35693;SDS011;21812;55.536;37.664;2023-11-19T06:30:54;31.70;;;12.53;;
35693;SDS011;21812;55.536;37.664;2023-11-19T06:33:20;29.03;;;11.90;;
35693;SDS011;21812;55.536;37.664;2023-11-19T06:35:45;26.87;;;13.23;;
35693;SDS011;21812;55.536;37.664;2023-11-19T06:38:11;25.60;;;12.83;;
35693;SDS011;21812;55.536;37.664;2023-11-19T06:40:37;27.80;;;13.87;;
35693;SDS011;21812;55.536;37.664;2023-11-19T06:43:03;31.23;;;12.70;;
35693;SDS011;21812;55.536;37.664;2023-11-19T06:45:29;19.93;;;11.93;;
35693;SDS011;21812;55.536;37.664;2023-11-19T06:47:55;31.70;;;14.60;;
35693;SDS011;21812;55.536;37.664;2023-11-19T06:50:21;31.67;;;12.87;;
35693;SDS011;21812;55.536;37.664;2023-11-19T06:52:47;27.07;;;13.13;;
35693;SDS011;21812;55.536;37.664;2023-11-19T06:55:12;29.20;;;13.37;;
35693;SDS011;21812;55.536;37.664;2023-11-19T06:57:38;35.87;;;14.40;;
35693;SDS011;21812;55.536;37.664;2023-11-19T07:00:05;33.13;;;15.47;;
35693;SDS011;21812;55.536;37.664;2023-11-19T07:02:31;30.17;;;13.93;;
35693;SDS011;21812;55.536;37.664;2023-11-19T07:04:57;32.17;;;13.20;;
35693;SDS011;21812;55.536;37.664;2023-11-19T07:07:23;26.00;;;11.53;;
35693;SDS011;21812;55.536;37.664;2023-11-19T07:09:49;24.17;;;11.53;;
35693;SDS011;21812;55.536;37.664;2023-11-19T07:12:15;22.50;;;12.57;;
35693;SDS011;21812;55.536;37.664;2023-11-19T07:14:41;20.00;;;11.30;;
35693;SDS011;21812;55.536;37.664;2023-11-19T07:17:07;17.57;;;10.40;;
35693;SDS011;21812;55.536;37.664;2023-11-19T07:19:34;19.80;;;9.77;;
35693;SDS011;21812;55.536;37.664;2023-11-19T07:22:01;17.30;;;10.33;;
35693;SDS011;21812;55.536;37.664;2023-11-19T07:24:27;23.40;;;10.27;;
35693;SDS011;21812;55.536;37.664;2023-11-19T07:26:54;25.07;;;10.87;;
35693;SDS011;21812;55.536;37.664;2023-11-19T07:29:19;21.33;;;12.10;;
35693;SDS011;21812;55.536;37.664;2023-11-19T07:31:48;20.97;;;10.47;;
35693;SDS011;21812;55.536;37.664;2023-11-19T07:34:14;22.93;;;11.20;;
35693;SDS011;21812;55.536;37.664;2023-11-19T07:36:40;19.07;;;9.80;;
35693;SDS011;21812;55.536;37.664;2023-11-19T07:39:06;27.73;;;12.60;;
35693;SDS011;21812;55.536;37.664;2023-11-19T07:41:32;21.73;;;11.30;;
35693;SDS011;21812;55.536;37.664;2023-11-19T07:43:58;28.70;;;11.23;;
35693;SDS011;21812;55.536;37.664;2023-11-19T07:46:24;21.27;;;13.27;;
35693;SDS011;21812;55.536;37.664;2023-11-19T07:48:51;20.63;;;10.90;;
35693;SDS011;21812;55.536;37.664;2023-11-19T07:51:17;18.20;;;11.17;;
35693;SDS011;21812;55.536;37.664;2023-11-19T07:53:43;21.53;;;11.47;;
35693;SDS011;21812;55.536;37.664;2023-11-19T07:56:09;23.20;;;11.30;;
35693;SDS011;21812;55.536;37.664;2023-11-19T07:58:36;48.17;;;11.80;;
35693;SDS011;21812;55.536;37.664;2023-11-19T08:01:02;24.53;;;11.83;;
35693;SDS011;21812;55.536;37.664;2023-11-19T08:03:28;20.57;;;10.37;;
35693;SDS011;21812;55.536;37.664;2023-11-19T08:05:55;22.90;;;9.67;;
35693;SDS011;21812;55.536;37.664;2023-11-19T08:08:24;21.30;;;10.77;;
35693;SDS011;21812;55.536;37.664;2023-11-19T08:10:50;17.70;;;10.97;;
35693;SDS011;21812;55.536;37.664;2023-11-19T08:13:20;18.03;;;9.43;;
35693;SDS011;21812;55.536;37.664;2023-11-19T08:15:46;15.07;;;8.67;;
35693;SDS011;21812;55.536;37.664;2023-11-19T08:18:12;19.27;;;9.50;;
35693;SDS011;21812;55.536;37.664;2023-11-19T08:20:39;10.87;;;8.17;;
35693;SDS011;21812;55.536;37.664;2023-11-19T08:23:05;19.27;;;9.57;;
35693;SDS011;21812;55.536;37.664;2023-11-19T08:25:30;17.67;;;9.57;;
35693;SDS011;21812;55.536;37.664;2023-11-19T08:27:59;18.00;;;9.43;;
35693;SDS011;21812;55.536;37.664;2023-11-19T08:30:43;18.63;;;8.70;;
35693;SDS011;21812;55.536;37.664;2023-11-19T08:33:09;16.67;;;8.73;;
35693;SDS011;21812;55.536;37.664;2023-11-19T08:35:35;16.20;;;8.43;;
35693;SDS011;21812;55.536;37.664;2023-11-19T08:38:01;21.77;;;8.13;;
35693;SDS011;21812;55.536;37.664;2023-11-19T08:40:27;12.43;;;7.23;;
35693;SDS011;21812;55.536;37.664;2023-11-19T08:42:53;14.63;;;7.80;;
35693;SDS011;21812;55.536;37.664;2023-11-19T08:45:19;9.83;;;6.60;;
35693;SDS011;21812;55.536;37.664;2023-11-19T08:47:45;10.97;;;7.77;;
35693;SDS011;21812;55.536;37.664;2023-11-19T08:50:11;14.90;;;8.00;;
35693;SDS011;21812;55.536;37.664;2023-11-19T08:52:37;16.40;;;7.83;;
35693;SDS011;21812;55.536;37.664;2023-11-19T08:55:03;11.70;;;6.83;;
35693;SDS011;21812;55.536;37.664;2023-11-19T08:57:32;15.83;;;8.33;;
35693;SDS011;21812;55.536;37.664;2023-11-19T09:00:00;11.90;;;6.97;;
35693;SDS011;21812;55.536;37.664;2023-11-19T09:02:30;10.43;;;6.57;;
35693;SDS011;21812;55.536;37.664;2023-11-19T09:04:55;16.20;;;8.30;;
35693;SDS011;21812;55.536;37.664;2023-11-19T09:07:21;12.57;;;6.97;;
35693;SDS011;21812;55.536;37.664;2023-11-19T09:09:47;11.40;;;6.00;;
35693;SDS011;21812;55.536;37.664;2023-11-19T09:12:13;11.90;;;7.07;;
35693;SDS011;21812;55.536;37.664;2023-11-19T09:14:39;9.03;;;5.43;;
35693;SDS011;21812;55.536;37.664;2023-11-19T09:17:05;8.53;;;4.50;;
35693;SDS011;21812;55.536;37.664;2023-11-19T09:19:32;32.57;;;8.13;;
35693;SDS011;21812;55.536;37.664;2023-11-19T09:21:58;6.63;;;3.83;;
35693;SDS011;21812;55.536;37.664;2023-11-19T09:24:24;8.07;;;4.80;;
35693;SDS011;21812;55.536;37.664;2023-11-19T09:26:50;9.00;;;4.87;;
35693;SDS011;21812;55.536;37.664;2023-11-19T09:29:15;11.77;;;5.33;;
35693;SDS011;21812;55.536;37.664;2023-11-19T09:31:42;8.17;;;3.97;;
35693;SDS011;21812;55.536;37.664;2023-11-19T09:34:07;8.50;;;4.17;;
35693;SDS011;21812;55.536;37.664;2023-11-19T09:36:33;8.73;;;4.03;;
35693;SDS011;21812;55.536;37.664;2023-11-19T09:38:59;13.17;;;6.87;;
35693;SDS011;21812;55.536;37.664;2023-11-19T09:41:29;13.93;;;7.53;;
35693;SDS011;21812;55.536;37.664;2023-11-19T09:43:56;12.80;;;6.67;;
35693;SDS011;21812;55.536;37.664;2023-11-19T09:46:22;8.33;;;5.23;;
35693;SDS011;21812;55.536;37.664;2023-11-19T09:48:49;10.30;;;4.90;;
35693;SDS011;21812;55.536;37.664;2023-11-19T09:51:20;15.07;;;5.70;;
35693;SDS011;21812;55.536;37.664;2023-11-19T09:53:47;10.67;;;5.17;;
35693;SDS011;21812;55.536;37.664;2023-11-19T09:56:13;10.00;;;5.60;;
35693;SDS011;21812;55.536;37.664;2023-11-19T09:58:40;8.53;;;5.30;;
35693;SDS011;21812;55.536;37.664;2023-11-19T10:01:07;9.37;;;5.17;;
35693;SDS011;21812;55.536;37.664;2023-11-19T10:03:35;10.47;;;6.00;;
35693;SDS011;21812;55.536;37.664;2023-11-19T10:06:06;7.47;;;5.63;;
35693;SDS011;21812;55.536;37.664;2023-11-19T10:08:34;8.70;;;4.97;;
35693;SDS011;21812;55.536;37.664;2023-11-19T10:11:02;8.33;;;4.90;;
35693;SDS011;21812;55.536;37.664;2023-11-19T10:13:28;8.73;;;4.87;;
35693;SDS011;21812;55.536;37.664;2023-11-19T10:15:57;9.77;;;4.50;;
35693;SDS011;21812;55.536;37.664;2023-11-19T10:18:24;7.43;;;5.10;;
35693;SDS011;21812;55.536;37.664;2023-11-19T10:20:51;7.10;;;5.37;;
35693;SDS011;21812;55.536;37.664;2023-11-19T10:23:17;16.60;;;8.03;;
35693;SDS011;21812;55.536;37.664;2023-11-19T10:25:43;12.20;;;6.83;;
35693;SDS011;21812;55.536;37.664;2023-11-19T10:28:08;16.27;;;7.47;;
35693;SDS011;21812;55.536;37.664;2023-11-19T10:30:34;11.90;;;6.43;;
35693;SDS011;21812;55.536;37.664;2023-11-19T10:33:07;12.80;;;7.00;;
35693;SDS011;21812;55.536;37.664;2023-11-19T10:35:35;17.70;;;7.63;;
35693;SDS011;21812;55.536;37.664;2023-11-19T10:38:15;16.87;;;8.50;;
35693;SDS011;21812;55.536;37.664;2023-11-19T10:40:41;15.07;;;8.13;;
35693;SDS011;21812;55.536;37.664;2023-11-19T10:43:08;14.73;;;7.70;;
35693;SDS011;21812;55.536;37.664;2023-11-19T10:45:37;17.13;;;7.93;;
35693;SDS011;21812;55.536;37.664;2023-11-19T10:48:04;12.90;;;6.83;;
35693;SDS011;21812;55.536;37.664;2023-11-19T10:50:34;12.77;;;7.63;;
35693;SDS011;21812;55.536;37.664;2023-11-19T10:53:01;12.73;;;7.83;;
35693;SDS011;21812;55.536;37.664;2023-11-19T10:55:29;13.03;;;7.60;;
35693;SDS011;21812;55.536;37.664;2023-11-19T10:58:00;15.47;;;7.43;;
35693;SDS011;21812;55.536;37.664;2023-11-19T11:00:59;13.47;;;6.77;;
35693;SDS011;21812;55.536;37.664;2023-11-19T11:03:31;14.60;;;7.13;;
35693;SDS011;21812;55.536;37.664;2023-11-19T11:06:04;20.67;;;8.70;;
35693;SDS011;21812;55.536;37.664;2023-11-19T11:08:31;10.43;;;6.67;;
35693;SDS011;21812;55.536;37.664;2023-11-19T11:10:57;15.90;;;7.70;;
35693;SDS011;21812;55.536;37.664;2023-11-19T11:13:23;12.87;;;8.07;;
35693;SDS011;21812;55.536;37.664;2023-11-19T11:15:50;14.47;;;8.43;;
35693;SDS011;21812;55.536;37.664;2023-11-19T11:18:17;14.57;;;7.07;;
35693;SDS011;21812;55.536;37.664;2023-11-19T11:20:45;14.37;;;7.90;;
35693;SDS011;21812;55.536;37.664;2023-11-19T11:37:17;22.47;;;11.50;;
35693;SDS011;21812;55.536;37.664;2023-11-19T11:39:46;22.80;;;15.57;;
35693;SDS011;21812;55.536;37.664;2023-11-19T11:50:14;17.17;;;7.63;;
35693;SDS011;21812;55.536;37.664;2023-11-19T11:57:57;17.70;;;9.20;;
35693;SDS011;21812;55.536;37.664;2023-11-19T12:03:01;17.77;;;8.83;;
35693;SDS011;21812;55.536;37.664;2023-11-19T12:05:27;16.83;;;10.23;;
35693;SDS011;21812;55.536;37.664;2023-11-19T12:08:04;18.50;;;9.87;;
35693;SDS011;21812;55.536;37.664;2023-11-19T12:10:33;18.63;;;9.60;;
35693;SDS011;21812;55.536;37.664;2023-11-19T12:13:04;18.77;;;11.70;;
35693;SDS011;21812;55.536;37.664;2023-11-19T12:15:32;20.70;;;10.77;;
35693;SDS011;21812;55.536;37.664;2023-11-19T12:17:58;17.77;;;10.80;;
35693;SDS011;21812;55.536;37.664;2023-11-19T12:20:25;18.70;;;10.17;;
35693;SDS011;21812;55.536;37.664;2023-11-19T12:22:52;17.03;;;10.50;;
35693;SDS011;21812;55.536;37.664;2023-11-19T12:25:19;20.37;;;11.60;;
35693;SDS011;21812;55.536;37.664;2023-11-19T12:27:46;23.03;;;12.07;;
35693;SDS011;21812;55.536;37.664;2023-11-19T12:30:23;22.30;;;12.00;;
35693;SDS011;21812;55.536;37.664;2023-11-19T12:32:50;19.07;;;11.10;;
35693;SDS011;21812;55.536;37.664;2023-11-19T12:35:34;22.37;;;12.70;;
35693;SDS011;21812;55.536;37.664;2023-11-19T12:38:08;22.17;;;9.55;;
35693;SDS011;21812;55.536;37.664;2023-11-19T12:40:43;23.60;;;10.63;;
35693;SDS011;21812;55.536;37.664;2023-11-19T12:43:09;19.30;;;10.27;;
35693;SDS011;21812;55.536;37.664;2023-11-19T12:45:35;18.47;;;10.20;;
35693;SDS011;21812;55.536;37.664;2023-11-19T12:48:04;19.93;;;10.53;;
35693;SDS011;21812;55.536;37.664;2023-11-19T12:50:49;19.50;;;10.70;;
35693;SDS011;21812;55.536;37.664;2023-11-19T12:53:26;18.17;;;10.40;;
35693;SDS011;21812;55.536;37.664;2023-11-19T12:55:53;25.40;;;10.87;;
35693;SDS011;21812;55.536;37.664;2023-11-19T13:01:03;17.23;;;10.07;;
35693;SDS011;21812;55.536;37.664;2023-11-19T13:03:34;15.80;;;9.03;;
35693;SDS011;21812;55.536;37.664;2023-11-19T13:06:04;20.60;;;10.43;;
35693;SDS011;21812;55.536;37.664;2023-11-19T13:08:39;15.20;;;9.77;;
35693;SDS011;21812;55.536;37.664;2023-11-19T13:11:06;21.67;;;10.18;;
35693;SDS011;21812;55.536;37.664;2023-11-19T13:13:54;15.00;;;8.07;;
35693;SDS011;21812;55.536;37.664;2023-11-19T13:16:29;16.97;;;9.87;;
35693;SDS011;21812;55.536;37.664;2023-11-19T13:18:56;17.33;;;9.60;;
35693;SDS011;21812;55.536;37.664;2023-11-19T13:21:23;16.60;;;9.70;;
35693;SDS011;21812;55.536;37.664;2023-11-19T13:23:49;20.90;;;8.90;;
35693;SDS011;21812;55.536;37.664;2023-11-19T13:26:15;16.87;;;8.77;;
35693;SDS011;21812;55.536;37.664;2023-11-19T13:28:41;19.23;;;9.13;;
35693;SDS011;21812;55.536;37.664;2023-11-19T13:31:07;16.33;;;8.43;;
35693;SDS011;21812;55.536;37.664;2023-11-19T13:33:33;15.17;;;8.80;;
35693;SDS011;21812;55.536;37.664;2023-11-19T13:35:59;14.87;;;9.00;;
35693;SDS011;21812;55.536;37.664;2023-11-19T13:38:31;15.73;;;9.63;;
35693;SDS011;21812;55.536;37.664;2023-11-19T13:40:58;16.97;;;8.37;;
35693;SDS011;21812;55.536;37.664;2023-11-19T13:43:24;17.70;;;10.17;;
35693;SDS011;21812;55.536;37.664;2023-11-19T13:45:50;17.87;;;11.17;;
35693;SDS011;21812;55.536;37.664;2023-11-19T13:48:18;19.10;;;10.57;;
35693;SDS011;21812;55.536;37.664;2023-11-19T13:50:44;18.13;;;11.03;;
35693;SDS011;21812;55.536;37.664;2023-11-19T13:53:10;22.57;;;10.53;;
35693;SDS011;21812;55.536;37.664;2023-11-19T13:55:36;20.50;;;11.23;;
35693;SDS011;21812;55.536;37.664;2023-11-19T13:58:01;15.63;;;10.40;;
35693;SDS011;21812;55.536;37.664;2023-11-19T14:00:27;19.47;;;10.83;;
35693;SDS011;21812;55.536;37.664;2023-11-19T14:02:53;15.80;;;9.37;;
35693;SDS011;21812;55.536;37.664;2023-11-19T14:05:19;21.10;;;10.87;;
35693;SDS011;21812;55.536;37.664;2023-11-19T14:07:45;16.20;;;10.00;;
35693;SDS011;21812;55.536;37.664;2023-11-19T14:10:14;15.90;;;9.23;;
35693;SDS011;21812;55.536;37.664;2023-11-19T14:12:40;17.17;;;9.70;;
35693;SDS011;21812;55.536;37.664;2023-11-19T14:15:07;21.10;;;12.23;;
35693;SDS011;21812;55.536;37.664;2023-11-19T14:17:35;16.10;;;10.40;;
35693;SDS011;21812;55.536;37.664;2023-11-19T14:20:04;17.67;;;10.37;;
35693;SDS011;21812;55.536;37.664;2023-11-19T14:22:39;18.60;;;10.27;;
35693;SDS011;21812;55.536;37.664;2023-11-19T14:25:05;22.13;;;12.20;;
35693;SDS011;21812;55.536;37.664;2023-11-19T14:27:38;24.33;;;13.23;;
35693;SDS011;21812;55.536;37.664;2023-11-19T14:30:05;21.53;;;12.30;;
35693;SDS011;21812;55.536;37.664;2023-11-19T14:32:32;27.23;;;14.57;;
35693;SDS011;21812;55.536;37.664;2023-11-19T14:34:58;25.83;;;14.33;;
35693;SDS011;21812;55.536;37.664;2023-11-19T14:37:24;23.83;;;14.03;;
35693;SDS011;21812;55.536;37.664;2023-11-19T14:39:49;28.30;;;15.47;;
35693;SDS011;21812;55.536;37.664;2023-11-19T14:42:16;25.90;;;14.40;;
35693;SDS011;21812;55.536;37.664;2023-11-19T14:44:42;29.70;;;14.77;;
35693;SDS011;21812;55.536;37.664;2023-11-19T14:47:08;30.00;;;16.00;;